Time,TemperatureF,DewpointF,PressureIn,WindDirection,WindDirectionDegrees,WindSpeedMPH,WindSpeedGustMPH,Humidity,HourlyPrecipIn,Conditions,Clouds,dailyrainin,SoftwareType,DateUTC
2013-02-17 00:02:00,1.0,-3.0,30.16,SE,130,0.0,2.0,84,0.00,,,0.00,,2013-02-17 06:02:00,
2013-02-17 00:11:00,1.0,-3.0,30.16,SE,130,0.0,2.0,84,0.00,,,0.00,,2013-02-17 06:11:00,
2013-02-17 00:21:00,1.0,-3.0,30.16,SE,130,0.0,2.0,84,0.00,,,0.00,,2013-02-17 06:21:00,
2013-02-17 00:31:00,1.0,-3.0,30.17,SE,130,1.0,2.0,84,0.00,,,0.00,,2013-02-17 06:31:00,
2013-02-17 00:41:00,1.0,-3.0,30.17,SE,130,1.0,2.0,84,0.00,,,0.00,,2013-02-17 06:41:00,
2013-02-17 00:51:00,1.0,-2.0,30.17,SE,130,0.0,2.0,85,0.00,,,0.00,,2013-02-17 06:51:00,
2013-02-17 01:01:00,1.0,-3.0,30.16,SE,130,0.0,1.0,82,0.00,,,0.00,,2013-02-17 07:01:00,
2013-02-17 01:11:00,0.0,-3.0,30.16,SE,130,0.0,1.0,85,0.00,,,0.00,,2013-02-17 07:11:00,
2013-02-17 01:21:00,0.0,-3.0,30.16,SE,130,0.0,1.0,85,0.00,,,0.00,,2013-02-17 07:21:00,
2013-02-17 01:31:00,1.0,-2.0,30.16,ENE,76,3.0,5.0,85,0.00,,,0.00,,2013-02-17 07:31:00,
2013-02-17 01:51:00,0.0,-4.0,30.16,ENE,76,1.0,3.0,84,0.00,,,0.00,,2013-02-17 07:51:00,
2013-02-17 02:01:00,0.0,-4.0,30.16,ENE,76,2.0,3.0,83,0.00,,,0.00,,2013-02-17 08:01:00,
2013-02-17 02:11:00,0.0,-4.0,30.16,ENE,76,2.0,3.0,83,0.00,,,0.00,,2013-02-17 08:11:00,
2013-02-17 02:21:00,-1.0,-5.0,30.16,SE,133,1.0,3.0,84,0.00,,,0.00,,2013-02-17 08:21:00,
2013-02-17 02:31:00,-1.0,-4.0,30.16,SE,132,1.0,2.0,86,0.00,,,0.00,,2013-02-17 08:31:00,
2013-02-17 02:42:00,-1.0,-4.0,30.16,SE,132,1.0,2.0,86,0.00,,,0.00,,2013-02-17 08:42:00,
2013-02-17 02:52:00,0.0,-3.0,30.16,SE,130,2.0,3.0,86,0.00,,,0.00,,2013-02-17 08:52:00,
2013-02-17 03:01:00,-1.0,-5.0,30.16,SE,130,2.0,3.0,83,0.00,,,0.00,,2013-02-17 09:01:00,
2013-02-17 03:21:00,-1.0,-5.0,30.16,East,89,3.0,5.0,84,0.00,,,0.00,,2013-02-17 09:21:00,
2013-02-17 03:31:00,-1.0,-4.0,30.16,East,89,2.0,3.0,85,0.00,,,0.00,,2013-02-17 09:31:00,
2013-02-17 03:51:00,-1.0,-4.0,30.16,East,89,2.0,5.0,85,0.00,,,0.00,,2013-02-17 09:51:00,
2013-02-17 04:01:00,-1.0,-5.0,30.16,East,88,3.0,5.0,84,0.00,,,0.00,,2013-02-17 10:01:00,
2013-02-17 04:21:00,-2.0,-6.0,30.15,East,86,3.0,5.0,81,0.00,,,0.00,,2013-02-17 10:21:00,
2013-02-17 04:31:00,-2.0,-6.0,30.14,East,86,3.0,5.0,84,0.00,,,0.00,,2013-02-17 10:31:00,
2013-02-17 04:52:00,-2.0,-6.0,30.14,East,84,3.0,5.0,84,0.00,,,0.00,,2013-02-17 10:52:00,
2013-02-17 05:01:00,-2.0,-6.0,30.14,East,84,3.0,5.0,84,0.00,,,0.00,,2013-02-17 11:01:00,
2013-02-17 05:21:00,-2.0,-6.0,30.14,East,84,2.0,3.0,82,0.00,,,0.00,,2013-02-17 11:21:00,
2013-02-17 05:32:00,-3.0,-7.0,30.14,East,84,2.0,3.0,83,0.00,,,0.00,,2013-02-17 11:32:00,
2013-02-17 05:42:00,-3.0,-7.0,30.14,East,84,2.0,3.0,83,0.00,,,0.00,,2013-02-17 11:42:00,
2013-02-17 05:52:00,-3.0,-7.0,30.14,East,84,2.0,3.0,83,0.00,,,0.00,,2013-02-17 11:52:00,
2013-02-17 06:03:00,-2.0,-6.0,30.14,East,84,4.0,5.0,84,0.00,,,0.00,,2013-02-17 12:03:00,
2013-02-17 06:22:00,-4.0,-8.0,30.14,East,101,2.0,3.0,81,0.00,,,0.00,,2013-02-17 12:22:00,
2013-02-17 06:32:00,-4.0,-8.0,30.14,East,99,1.0,3.0,83,0.00,,,0.00,,2013-02-17 12:32:00,
2013-02-17 06:42:00,-4.0,-8.0,30.14,East,99,1.0,3.0,83,0.00,,,0.00,,2013-02-17 12:42:00,
2013-02-17 06:52:00,-4.0,-8.0,30.14,East,99,1.0,3.0,83,0.00,,,0.00,,2013-02-17 12:52:00,
2013-02-17 07:02:00,-3.0,-7.0,30.12,East,86,3.0,5.0,82,0.00,,,0.00,,2013-02-17 13:02:00,
2013-02-17 07:12:00,-3.0,-7.0,30.12,East,86,3.0,5.0,82,0.00,,,0.00,,2013-02-17 13:12:00,
2013-02-17 07:22:00,-3.0,-7.0,30.11,ENE,78,4.0,6.0,81,0.00,,,0.00,,2013-02-17 13:22:00,
2013-02-17 07:32:00,-3.0,-7.0,30.11,East,82,3.0,5.0,82,0.00,,,0.00,,2013-02-17 13:32:00,
2013-02-17 07:41:00,-3.0,-7.0,30.11,East,82,3.0,5.0,82,0.00,,,0.00,,2013-02-17 13:41:00,
2013-02-17 07:51:00,-3.0,-7.0,30.11,ENE,78,2.0,4.0,83,0.00,,,0.00,,2013-02-17 13:51:00,
2013-02-17 08:01:00,-2.0,-6.0,30.11,East,83,3.0,5.0,84,0.00,,,0.00,,2013-02-17 14:01:00,
2013-02-17 08:11:00,-2.0,-6.0,30.11,East,83,3.0,5.0,84,0.00,,,0.00,,2013-02-17 14:11:00,
2013-02-17 08:21:00,-1.0,-5.0,30.11,East,84,2.0,5.0,82,0.00,,,0.00,,2013-02-17 14:21:00,
2013-02-17 08:32:00,-1.0,-5.0,30.11,East,84,2.0,5.0,82,0.00,,,0.00,,2013-02-17 14:32:00,
2013-02-17 08:42:00,-1.0,-5.0,30.11,East,84,2.0,5.0,82,0.00,,,0.00,,2013-02-17 14:42:00,
2013-02-17 08:52:00,0.0,-4.0,30.10,East,93,2.0,6.0,82,0.00,,,0.00,,2013-02-17 14:52:00,
2013-02-17 09:02:00,1.0,-3.0,30.10,East,91,3.0,5.0,81,0.00,,,0.00,,2013-02-17 15:02:00,
2013-02-17 09:11:00,1.0,-3.0,30.10,East,91,3.0,5.0,81,0.00,,,0.00,,2013-02-17 15:11:00,
2013-02-17 09:21:00,2.0,-3.0,30.09,East,88,2.0,6.0,80,0.00,,,0.00,,2013-02-17 15:21:00,
2013-02-17 09:32:00,4.0,-1.0,30.09,East,94,2.0,4.0,78,0.00,,,0.00,,2013-02-17 15:32:00,
2013-02-17 09:41:00,4.0,-1.0,30.09,East,94,2.0,4.0,78,0.00,,,0.00,,2013-02-17 15:41:00,
2013-02-17 09:52:00,7.0,0.0,30.10,SSE,147,1.0,5.0,74,0.00,,,0.00,,2013-02-17 15:52:00,
2013-02-17 10:01:00,9.0,2.0,30.09,East,96,3.0,8.0,71,0.00,,,0.00,,2013-02-17 16:01:00,
2013-02-17 10:11:00,9.0,2.0,30.09,East,96,3.0,8.0,71,0.00,,,0.00,,2013-02-17 16:11:00,
2013-02-17 10:21:00,12.0,4.0,30.09,East,96,5.0,8.0,68,0.00,,,0.00,,2013-02-17 16:21:00,
2013-02-17 10:32:00,14.0,4.0,30.09,East,95,3.0,7.0,65,0.00,,,0.00,,2013-02-17 16:32:00,
2013-02-17 10:42:00,14.0,4.0,30.09,East,95,3.0,7.0,65,0.00,,,0.00,,2013-02-17 16:42:00,
2013-02-17 10:51:00,15.0,5.0,30.08,SE,124,6.0,12.0,63,0.00,,,0.00,,2013-02-17 16:51:00,
2013-02-17 11:02:00,16.0,6.0,30.09,SE,124,9.0,15.0,63,0.00,,,0.00,,2013-02-17 17:02:00,
2013-02-17 11:11:00,16.0,6.0,30.09,SE,124,9.0,15.0,63,0.00,,,0.00,,2013-02-17 17:11:00,
2013-02-17 11:21:00,17.0,7.0,30.07,SE,138,11.0,14.0,64,0.00,,,0.00,,2013-02-17 17:21:00,
2013-02-17 11:32:00,18.0,8.0,30.07,South,172,7.0,13.0,64,0.00,,,0.00,,2013-02-17 17:32:00,
2013-02-17 11:42:00,18.0,8.0,30.07,South,172,7.0,13.0,64,0.00,,,0.00,,2013-02-17 17:42:00,
2013-02-17 11:52:00,19.0,9.0,30.06,SE,137,6.0,13.0,63,0.00,,,0.00,,2013-02-17 17:52:00,
2013-02-17 12:02:00,20.0,9.0,30.06,SE,138,12.0,15.0,63,0.00,,,0.00,,2013-02-17 18:02:00,
2013-02-17 12:11:00,20.0,9.0,30.06,SE,138,12.0,15.0,63,0.00,,,0.00,,2013-02-17 18:11:00,
2013-02-17 12:22:00,21.0,10.0,30.06,SE,132,9.0,14.0,63,0.00,,,0.00,,2013-02-17 18:22:00,
2013-02-17 12:33:00,21.0,10.0,30.06,SE,132,9.0,14.0,63,0.00,,,0.00,,2013-02-17 18:33:00,
2013-02-17 12:42:00,21.0,10.0,30.06,SE,132,9.0,14.0,63,0.00,,,0.00,,2013-02-17 18:42:00,
2013-02-17 12:52:00,21.0,10.0,30.04,South,176,7.0,15.0,62,0.00,,,0.00,,2013-02-17 18:52:00,
2013-02-17 13:01:00,22.0,11.0,30.03,SE,134,8.0,17.0,61,0.00,,,0.00,,2013-02-17 19:01:00,
2013-02-17 13:11:00,22.0,11.0,30.03,SE,134,8.0,17.0,61,0.00,,,0.00,,2013-02-17 19:11:00,
2013-02-17 13:21:00,22.0,11.0,30.02,SE,133,10.0,19.0,61,0.00,,,0.00,,2013-02-17 19:21:00,
2013-02-17 13:32:00,22.0,11.0,30.02,SE,133,10.0,19.0,61,0.00,,,0.00,,2013-02-17 19:32:00,
2013-02-17 13:42:00,22.0,11.0,30.02,SE,133,10.0,19.0,61,0.00,,,0.00,,2013-02-17 19:42:00,
2013-02-17 13:51:00,22.0,11.0,30.02,SE,133,10.0,19.0,61,0.00,,,0.00,,2013-02-17 19:51:00,
2013-02-17 14:02:00,24.0,12.0,29.99,SSE,156,10.0,14.0,60,0.00,,,0.00,,2013-02-17 20:02:00,
2013-02-17 14:11:00,24.0,12.0,29.99,SSE,156,10.0,14.0,60,0.00,,,0.00,,2013-02-17 20:11:00,
2013-02-17 14:21:00,25.0,13.0,29.98,SE,132,12.0,15.0,59,0.00,,,0.00,,2013-02-17 20:21:00,
2013-02-17 14:32:00,25.0,13.0,29.98,SSE,147,10.0,18.0,59,0.00,,,0.00,,2013-02-17 20:32:00,
2013-02-17 14:42:00,25.0,13.0,29.98,SSE,147,10.0,18.0,59,0.00,,,0.00,,2013-02-17 20:42:00,
2013-02-17 14:52:00,25.0,12.0,29.97,SE,134,9.0,15.0,58,0.00,,,0.00,,2013-02-17 20:52:00,
2013-02-17 15:02:00,25.0,12.0,29.95,SE,129,12.0,18.0,58,0.00,,,0.00,,2013-02-17 21:02:00,
2013-02-17 15:11:00,25.0,12.0,29.95,SE,129,12.0,18.0,58,0.00,,,0.00,,2013-02-17 21:11:00,
2013-02-17 15:21:00,25.0,12.0,29.94,SE,134,12.0,21.0,58,0.00,,,0.00,,2013-02-17 21:21:00,
2013-02-17 15:32:00,26.0,14.0,29.93,SE,125,14.0,19.0,59,0.00,,,0.00,,2013-02-17 21:32:00,
2013-02-17 15:42:00,26.0,14.0,29.93,SE,125,14.0,19.0,59,0.00,,,0.00,,2013-02-17 21:42:00,
2013-02-17 15:52:00,26.0,13.0,29.93,SE,137,12.0,18.0,57,0.00,,,0.00,,2013-02-17 21:52:00,
2013-02-17 16:01:00,26.0,14.0,29.93,SE,143,11.0,22.0,59,0.00,,,0.00,,2013-02-17 22:01:00,
2013-02-17 16:12:00,26.0,14.0,29.93,SE,143,11.0,22.0,59,0.00,,,0.00,,2013-02-17 22:12:00,
2013-02-17 16:21:00,26.0,14.0,29.93,SE,143,11.0,22.0,59,0.00,,,0.00,,2013-02-17 22:21:00,
2013-02-17 16:32:00,25.0,13.0,29.91,South,176,10.0,21.0,60,0.00,,,0.00,,2013-02-17 22:32:00,
2013-02-17 16:42:00,25.0,13.0,29.91,South,176,10.0,21.0,60,0.00,,,0.00,,2013-02-17 22:42:00,
2013-02-17 16:52:00,25.0,13.0,29.91,SSE,152,10.0,16.0,60,0.00,,,0.00,,2013-02-17 22:52:00,
2013-02-17 17:02:00,25.0,13.0,29.91,SE,130,10.0,16.0,60,0.00,,,0.00,,2013-02-17 23:02:00,
2013-02-17 17:11:00,25.0,13.0,29.91,SE,130,10.0,16.0,60,0.00,,,0.00,,2013-02-17 23:11:00,
2013-02-17 17:21:00,25.0,14.0,29.90,SE,136,10.0,16.0,62,0.00,,,0.00,,2013-02-17 23:21:00,
2013-02-17 17:32:00,25.0,14.0,29.89,SE,144,10.0,18.0,62,0.00,,,0.00,,2013-02-17 23:32:00,
2013-02-17 17:42:00,25.0,14.0,29.89,SE,144,10.0,18.0,62,0.00,,,0.00,,2013-02-17 23:42:00,
2013-02-17 17:52:00,25.0,14.0,29.88,SE,132,12.0,16.0,63,0.00,,,0.00,,2013-02-17 23:52:00,
2013-02-17 18:01:00,25.0,15.0,29.87,SE,134,10.0,18.0,64,0.00,,,0.00,,2013-02-18 00:01:00,
2013-02-17 18:11:00,25.0,15.0,29.87,SE,134,10.0,18.0,64,0.00,,,0.00,,2013-02-18 00:11:00,
2013-02-17 18:22:00,25.0,15.0,29.87,SE,145,10.0,18.0,64,0.00,,,0.00,,2013-02-18 00:22:00,
2013-02-17 18:32:00,24.0,14.0,29.86,SE,137,11.0,16.0,64,0.00,,,0.00,,2013-02-18 00:32:00,
2013-02-17 18:41:00,24.0,14.0,29.86,SE,137,11.0,16.0,64,0.00,,,0.00,,2013-02-18 00:41:00,
2013-02-17 18:52:00,24.0,14.0,29.86,SE,137,13.0,19.0,64,0.00,,,0.00,,2013-02-18 00:52:00,
2013-02-17 19:01:00,24.0,14.0,29.85,SSE,155,11.0,20.0,64,0.00,,,0.00,,2013-02-18 01:01:00,
2013-02-17 19:11:00,24.0,14.0,29.85,SSE,155,11.0,20.0,64,0.00,,,0.00,,2013-02-18 01:11:00,
2013-02-17 19:21:00,24.0,14.0,29.85,SSE,153,13.0,19.0,64,0.00,,,0.00,,2013-02-18 01:21:00,
2013-02-17 19:31:00,24.0,14.0,29.85,SE,140,13.0,21.0,65,0.00,,,0.00,,2013-02-18 01:31:00,
2013-02-17 19:41:00,24.0,14.0,29.85,SE,140,13.0,21.0,65,0.00,,,0.00,,2013-02-18 01:41:00,
2013-02-17 19:51:00,23.0,13.0,29.85,SE,144,12.0,20.0,65,0.00,,,0.00,,2013-02-18 01:51:00,
2013-02-17 20:01:00,23.0,13.0,29.85,SE,140,11.0,16.0,65,0.00,,,0.00,,2013-02-18 02:01:00,
2013-02-17 20:11:00,23.0,13.0,29.85,SE,140,11.0,16.0,65,0.00,,,0.00,,2013-02-18 02:11:00,
2013-02-17 20:21:00,23.0,13.0,29.84,SE,139,11.0,19.0,65,0.00,,,0.00,,2013-02-18 02:21:00,
2013-02-17 20:32:00,23.0,14.0,29.84,SE,138,11.0,18.0,67,0.00,,,0.00,,2013-02-18 02:32:00,
2013-02-17 20:41:00,23.0,14.0,29.84,SE,138,11.0,18.0,67,0.00,,,0.00,,2013-02-18 02:41:00,
2013-02-17 20:52:00,22.0,13.0,29.83,SE,146,10.0,15.0,67,0.00,,,0.00,,2013-02-18 02:52:00,
2013-02-17 21:01:00,22.0,13.0,29.83,SSE,152,10.0,14.0,68,0.00,,,0.00,,2013-02-18 03:01:00,
2013-02-17 21:11:00,22.0,13.0,29.83,SSE,152,10.0,14.0,68,0.00,,,0.00,,2013-02-18 03:11:00,
2013-02-17 21:21:00,22.0,13.0,29.83,SSE,153,10.0,17.0,69,0.00,,,0.00,,2013-02-18 03:21:00,
2013-02-17 21:31:00,22.0,13.0,29.83,South,173,9.0,16.0,69,0.00,,,0.00,,2013-02-18 03:31:00,
2013-02-17 21:42:00,22.0,13.0,29.83,South,173,9.0,16.0,69,0.00,,,0.00,,2013-02-18 03:42:00,
2013-02-17 21:51:00,22.0,14.0,29.82,SE,131,12.0,16.0,70,0.00,,,0.00,,2013-02-18 03:51:00,
2013-02-17 22:01:00,22.0,14.0,29.82,SE,125,7.0,14.0,71,0.00,,,0.00,,2013-02-18 04:01:00,
2013-02-17 22:11:00,22.0,14.0,29.82,SE,125,7.0,14.0,71,0.00,,,0.00,,2013-02-18 04:11:00,
2013-02-17 22:21:00,22.0,14.0,29.81,SE,146,9.0,16.0,72,0.00,,,0.00,,2013-02-18 04:21:00,
2013-02-17 22:32:00,22.0,14.0,29.81,SE,144,10.0,15.0,72,0.00,,,0.00,,2013-02-18 04:32:00,
2013-02-17 22:41:00,22.0,14.0,29.81,SE,144,10.0,15.0,72,0.00,,,0.00,,2013-02-18 04:41:00,
2013-02-17 22:51:00,22.0,14.0,29.80,SSE,147,7.0,18.0,72,0.00,,,0.00,,2013-02-18 04:51:00,
2013-02-17 23:02:00,22.0,15.0,29.80,ESE,118,9.0,14.0,73,0.00,,,0.00,,2013-02-18 05:02:00,
2013-02-17 23:11:00,22.0,15.0,29.80,ESE,118,9.0,14.0,73,0.00,,,0.00,,2013-02-18 05:11:00,
2013-02-17 23:21:00,21.0,14.0,29.79,SE,136,7.0,12.0,74,0.00,,,0.00,,2013-02-18 05:21:00,
2013-02-17 23:31:00,21.0,14.0,29.78,SE,134,7.0,11.0,75,0.00,,,0.00,,2013-02-18 05:31:00,
2013-02-17 23:41:00,21.0,14.0,29.78,SE,134,7.0,11.0,75,0.00,,,0.00,,2013-02-18 05:41:00,
2013-02-17 23:52:00,21.0,14.0,29.77,SE,127,8.0,14.0,75,0.00,,,0.00,,2013-02-18 05:52:00,